Time;durP1;ratioP1;P1;durP2;ratioP2;P2;SDS_P1;SDS_P2;PMS_P1;PMS_P2;Temp;Humidity;BMP_temperature;BMP_pressure;BME280_temperature;BME280_humidity;BME280_pressure;Samples;Min_cycle;Max_cycle;Signal;HPM_P1;HPM_P2
2022/05/03 00:01:33;;;;;;;10.40;8.02;;;9.30;99.90;;;;;;5110986;28;20020;-67
2022/05/03 00:04:09;;;;;;;11.02;8.30;;;9.20;99.90;;;;;;5110849;28;20024;-68
2022/05/03 00:06:56;;;;;;;15.13;9.07;;;9.10;99.90;;;;;;5110822;28;20027;-68
2022/05/03 00:09:38;;;;;;;12.38;8.63;;;9.00;99.90;;;;;;5110714;28;20032;-68
2022/05/03 00:12:08;;;;;;;11.43;8.32;;;8.90;99.90;;;;;;5110660;28;20478;-67
2022/05/03 00:14:43;;;;;;;12.75;8.63;;;8.80;99.90;;;;;;5110676;28;20027;-68
2022/05/03 00:17:12;;;;;;;10.10;7.65;;;8.70;99.90;;;;;;5110707;28;20020;-68
2022/05/03 00:19:39;;;;;;;11.75;8.07;;;8.70;99.90;;;;;;5110556;28;20081;-67
2022/05/03 00:22:04;;;;;;;12.52;8.38;;;8.60;99.90;;;;;;5110791;28;20547;-67
2022/05/03 00:24:30;;;;;;;13.80;8.55;;;8.50;99.90;;;;;;5110391;28;20028;-67
2022/05/03 00:26:57;;;;;;;11.48;8.43;;;8.40;99.90;;;;;;5110361;28;20493;-67
2022/05/03 00:29:23;;;;;;;14.80;9.27;;;8.40;99.90;;;;;;5110307;28;20020;-68
2022/05/03 00:31:49;;;;;;;13.20;9.50;;;8.30;99.90;;;;;;5110358;28;20469;-68
2022/05/03 00:34:16;;;;;;;13.68;8.60;;;8.30;99.90;;;;;;5110532;28;20077;-67
2022/05/03 00:36:42;;;;;;;13.75;8.73;;;8.20;99.90;;;;;;5110345;28;20020;-67
2022/05/03 00:39:08;;;;;;;13.32;9.38;;;8.20;99.90;;;;;;5110308;28;20111;-67
2022/05/03 00:41:41;;;;;;;10.75;8.35;;;8.20;99.90;;;;;;5110208;28;20024;-67
2022/05/03 00:45:06;;;;;;;15.35;9.77;;;8.20;99.90;;;;;;5110139;28;20034;-67
2022/05/03 00:47:25;;;;;;;12.27;8.57;;;8.00;99.90;;;;;;5109950;28;20424;-67
2022/05/03 00:50:09;;;;;;;13.50;8.73;;;8.00;99.90;;;;;;5109875;28;20459;-67
2022/05/03 00:52:43;;;;;;;12.07;8.30;;;7.90;99.90;;;;;;5109949;28;20016;-67
2022/05/03 00:55:49;;;;;;;14.27;9.63;;;7.80;99.90;;;;;;5110185;28;20397;-67
2022/05/03 00:58:44;;;;;;;18.67;10.48;;;7.80;99.90;;;;;;5109644;28;20035;-67
2022/05/03 01:01:37;;;;;;;15.38;10.20;;;7.70;99.90;;;;;;5100438;28;20078;-67
2022/05/03 01:04:25;;;;;;;16.50;10.05;;;7.60;99.90;;;;;;5096044;28;20117;-67
2022/05/03 01:07:15;;;;;;;13.07;9.30;;;7.50;99.90;;;;;;5096178;28;20478;-67
2022/05/03 01:09:43;;;;;;;13.13;9.88;;;7.30;99.90;;;;;;5095825;28;20032;-67
2022/05/03 01:12:32;;;;;;;13.57;9.90;;;7.30;99.90;;;;;;5096103;28;20115;-67
2022/05/03 01:15:18;;;;;;;14.00;9.80;;;7.30;99.90;;;;;;5095963;28;20050;-67
2022/05/03 01:17:48;;;;;;;14.13;10.27;;;7.20;99.90;;;;;;5095852;28;20047;-67
2022/05/03 01:20:26;;;;;;;13.88;10.18;;;7.10;99.90;;;;;;5095885;28;20035;-67
2022/05/03 01:25:49;;;;;;;17.17;10.38;;;7.10;99.90;;;;;;5152498;27;20354;-67
2022/05/03 01:28:29;;;;;;;19.60;10.52;;;6.90;99.90;;;;;;5152563;27;20511;-67
2022/05/03 01:30:58;;;;;;;17.25;10.48;;;6.90;99.90;;;;;;5152522;27;20030;-67
2022/05/03 01:33:45;;;;;;;17.30;10.93;;;6.90;99.90;;;;;;5152525;27;20084;-66
2022/05/03 01:36:11;;;;;;;18.80;11.35;;;6.90;99.90;;;;;;5152428;27;20402;-67
2022/05/03 01:39:16;;;;;;;15.20;9.88;;;6.90;99.90;;;;;;5150831;27;20027;-66
2022/05/03 01:41:56;;;;;;;14.65;10.27;;;6.80;99.90;;;;;;5151888;27;20110;-67
2022/05/03 01:44:30;;;;;;;16.15;10.35;;;;;;;;;;5152151;27;20583;-66
2022/05/03 01:47:00;;;;;;;15.57;10.50;;;;;;;;;;5151902;27;20504;-66
2022/05/03 01:52:24;;;;;;;16.60;10.07;;;;;;;;;;5151626;27;20023;-66
2022/05/03 01:55:10;;;;;;;15.18;10.88;;;;;;;;;;5151790;27;20023;-66
2022/05/03 01:57:56;;;;;;;17.70;10.48;;;;;;;;;;5151586;27;20027;-66
2022/05/03 02:00:22;;;;;;;18.05;10.73;;;;;;;;;;5151605;27;20023;-66
2022/05/03 02:03:07;;;;;;;16.33;11.35;;;;;;;;;;5151826;27;20030;-66
2022/05/03 02:05:42;;;;;;;18.50;11.07;;;;;;;;;;5133155;27;20031;-66
2022/05/03 02:08:10;;;;;;;15.80;10.30;;;;;;;;;;5151538;27;20561;-67
2022/05/03 02:10:56;;;;;;;15.32;10.30;;;;;;;;;;5151397;27;20105;-66
2022/05/03 02:16:30;;;;;;;14.63;10.50;;;;;;;;;;5151206;27;20019;-66
2022/05/03 02:19:05;;;;;;;17.48;11.02;;;;;;;;;;5151544;27;20041;-66
2022/05/03 02:21:38;;;;;;;15.07;10.88;;;;;;;;;;5151219;27;20027;-66
2022/05/03 02:24:07;;;;;;;18.05;11.35;;;;;;;;;;5150877;27;20101;-66
2022/05/03 02:26:50;;;;;;;17.80;10.93;;;;;;;;;;5151057;27;20473;-66
2022/05/03 02:29:18;;;;;;;13.30;10.25;;;;;;;;;;5151137;27;20027;-66
2022/05/03 02:31:50;;;;;;;16.67;11.30;;;;;;;;;;5151091;27;20373;-66
2022/05/03 02:34:23;;;;;;;16.58;10.15;;;;;;;;;;5151092;27;20476;-66
2022/05/03 02:36:55;;;;;;;15.73;10.57;;;;;;;;;;5137640;27;20039;-66
2022/05/03 02:39:25;;;;;;;16.63;10.35;;;;;;;;;;5137152;27;20027;-66
2022/05/03 02:41:51;;;;;;;17.45;10.50;;;;;;;;;;5137034;27;20031;-66
2022/05/03 02:44:19;;;;;;;14.35;9.90;;;;;;;;;;5137243;27;20030;-66
2022/05/03 02:46:52;;;;;;;16.27;10.65;;;;;;;;;;5136993;27;20027;-66
2022/05/03 02:49:20;;;;;;;17.08;10.70;;;;;;;;;;5136956;27;20015;-66
2022/05/03 02:52:06;;;;;;;14.13;10.32;;;;;;;;;;5137090;27;20388;-66
2022/05/03 02:54:37;;;;;;;15.73;9.88;;;;;;;;;;5136717;27;20083;-66
2022/05/03 02:57:23;;;;;;;16.90;10.05;;;;;;;;;;5136687;27;20031;-66
2022/05/03 03:03:14;;;;;;;17.23;10.45;;;;;;;;;;5136477;27;20122;-66
2022/05/03 03:05:44;;;;;;;15.50;10.07;;;;;;;;;;5136548;27;20028;-66
2022/05/03 03:08:12;;;;;;;15.60;10.60;;;;;;;;;;5136916;27;20015;-66
2022/05/03 03:10:44;;;;;;;14.52;8.82;;;;;;;;;;5136763;27;20023;-66
2022/05/03 03:13:15;;;;;;;14.40;9.57;;;;;;;;;;5136712;27;20020;-66
2022/05/03 03:15:41;;;;;;;14.40;9.38;;;;;;;;;;5136435;27;20055;-66
2022/05/03 03:18:13;;;;;;;12.05;8.93;;;;;;;;;;5136352;27;20501;-66
2022/05/03 03:20:42;;;;;;;13.30;9.00;;;;;;;;;;5136246;27;20434;-66
2022/05/03 03:23:09;;;;;;;13.60;9.10;;;;;;;;;;5136079;27;20011;-66
2022/05/03 03:25:37;;;;;;;13.38;8.48;;;;;;;;;;5136173;27;20053;-66
2022/05/03 03:28:04;;;;;;;12.93;8.88;;;;;;;;;;5136418;27;20015;-66
2022/05/03 03:30:30;;;;;;;10.93;8.30;;;;;;;;;;5136205;27;20485;-66
2022/05/03 03:32:56;;;;;;;17.52;8.95;;;;;;;;;;5136076;27;20104;-66
2022/05/03 03:35:22;;;;;;;15.88;9.07;;;;;;;;;;5136056;27;20062;-66
2022/05/03 03:37:49;;;;;;;12.60;9.18;;;;;;;;;;5134665;27;20062;-65
2022/05/03 03:40:16;;;;;;;12.27;8.35;;;;;;;;;;5136165;27;20500;-65
2022/05/03 03:42:43;;;;;;;11.77;8.80;;;;;;;;;;5134998;27;20029;-65
2022/05/03 03:45:10;;;;;;;12.85;8.77;;;;;;;;;;5136014;27;20026;-65
2022/05/03 03:47:36;;;;;;;11.57;8.80;;;;;;;;;;5116505;27;20028;-65
2022/05/03 03:50:03;;;;;;;11.18;7.60;;;;;;;;;;5135720;27;20500;-65
2022/05/03 03:52:29;;;;;;;11.35;8.20;;;;;;;;;;5135650;27;20019;-65
2022/05/03 03:54:56;;;;;;;11.52;8.00;;;;;;;;;;5135687;27;20599;-65
2022/05/03 03:57:22;;;;;;;12.13;7.72;;;;;;;;;;5135615;27;20084;-65
2022/05/03 03:59:49;;;;;;;12.82;7.82;;;;;;;;;;5135520;27;20027;-65
2022/05/03 04:02:15;;;;;;;12.43;8.20;;;;;;;;;;5135734;27;20392;-65
2022/05/03 04:04:42;;;;;;;11.73;7.70;;;;;;;;;;5135399;27;20059;-66
2022/05/03 04:07:08;;;;;;;9.60;7.50;;;;;;;;;;5135348;27;20031;-66
2022/05/03 04:09:34;;;;;;;11.30;7.68;;;;;;;;;;5135348;27;20027;-67
2022/05/03 04:12:01;;;;;;;12.05;7.55;;;;;;;;;;5135290;27;20102;-67
2022/05/03 04:14:27;;;;;;;12.25;8.90;;;;;;;;;;5135480;27;20034;-67
2022/05/03 04:16:53;;;;;;;12.85;8.07;;;;;;;;;;5135196;27;20400;-66
2022/05/03 04:19:21;;;;;;;11.73;7.57;;;;;;;;;;5135372;27;20019;-66
2022/05/03 04:21:47;;;;;;;10.48;7.88;;;;;;;;;;5135353;27;20065;-66
2022/05/03 04:24:13;;;;;;;12.70;8.32;;;;;;;;;;5134882;27;20084;-66
2022/05/03 04:26:39;;;;;;;11.65;8.18;;;;;;;;;;5135027;27;20015;-66
2022/05/03 04:29:05;;;;;;;12.93;8.52;;;;;;;;;;5134907;27;20107;-66
2022/05/03 04:31:32;;;;;;;13.25;8.80;;;;;;;;;;5134905;27;20029;-66
2022/05/03 04:33:58;;;;;;;18.15;9.07;;;;;;;;;;5134876;27;20038;-66
2022/05/03 04:36:25;;;;;;;14.18;8.82;;;;;;;;;;5134848;27;20027;-66
2022/05/03 04:38:51;;;;;;;12.32;8.35;;;;;;;;;;5135084;27;20473;-66
2022/05/03 04:41:17;;;;;;;12.73;8.32;;;;;;;;;;5134778;27;20149;-66
2022/05/03 04:43:43;;;;;;;12.57;8.30;;;;;;;;;;5134696;27;20031;-66
2022/05/03 04:46:09;;;;;;;12.85;8.05;;;;;;;;;;5134685;27;20106;-66
2022/05/03 04:48:35;;;;;;;12.23;7.80;;;;;;;;;;5133468;27;20148;-67
2022/05/03 04:51:01;;;;;;;11.75;7.35;;;;;;;;;;5134616;27;20481;-66
2022/05/03 04:53:27;;;;;;;10.32;7.70;;;;;;;;;;5134557;27;20388;-66
2022/05/03 04:55:53;;;;;;;12.25;7.35;;;;;;;;;;5134505;27;20015;-66
2022/05/03 04:58:19;;;;;;;15.70;6.93;;;;;;;;;;5134207;27;20019;-67
2022/05/03 05:00:45;;;;;;;9.77;7.05;;;;;;;;;;5134523;27;20058;-66
2022/05/03 05:03:11;;;;;;;12.10;7.25;;;;;;;;;;5134668;27;20026;-66
2022/05/03 05:05:37;;;;;;;10.30;6.47;;;;;;;;;;5134270;27;20510;-67
2022/05/03 05:08:04;;;;;;;10.20;6.10;;;;;;;;;;5134273;27;20023;-66
2022/05/03 05:10:32;;;;;;;9.05;6.05;;;;;;;;;;5134302;27;20016;-67
2022/05/03 05:12:57;;;;;;;11.73;6.20;;;;;;;;;;5134189;27;20046;-67
2022/05/03 05:15:23;;;;;;;8.63;5.82;;;;;;;;;;5133018;27;20027;-66
2022/05/03 05:17:50;;;;;;;8.13;5.35;;;;;;;;;;5132995;27;20027;-67
2022/05/03 05:20:17;;;;;;;10.05;5.85;;;;;;;;;;5134222;27;20030;-66
2022/05/03 05:22:43;;;;;;;9.80;6.80;;;;;;;;;;5134291;28;20015;-66
2022/05/03 05:25:13;;;;;;;8.27;5.30;;;;;;;;;;5133823;28;20115;-67
2022/05/03 05:27:39;;;;;;;6.55;5.30;;;;;;;;;;5134304;28;20030;-67
2022/05/03 05:30:06;;;;;;;6.88;5.20;;;;;;;;;;5132808;28;20027;-67
2022/05/03 05:32:32;;;;;;;7.95;5.18;;;;;;;;;;5134286;28;20096;-67
2022/05/03 05:34:58;;;;;;;7.10;4.63;;;;;;;;;;5134007;28;20024;-67
2022/05/03 05:37:24;;;;;;;7.97;4.82;;;;;;;;;;5134005;28;20027;-67
2022/05/03 05:39:49;;;;;;;6.47;4.20;;;9.80;99.90;;;;;;5134044;28;20026;-67
2022/05/03 05:42:15;;;;;;;5.22;4.63;;;10.50;99.90;;;;;;5134206;28;20461;-68
2022/05/03 05:44:41;;;;;;;8.10;4.40;;;;;;;;;;5133853;28;20034;-67
2022/05/03 05:47:07;;;;;;;5.93;4.40;;;12.80;99.90;;;;;;5133942;28;20027;-68
2022/05/03 05:49:32;;;;;;;5.88;4.40;;;13.50;99.90;;;;;;5132513;28;20385;-68
2022/05/03 05:54:44;;;;;;;6.38;3.97;;;14.10;97.90;;;;;;5133654;28;20019;-68
2022/05/03 05:57:10;;;;;;;7.75;3.65;;;14.60;95.30;;;;;;5133650;27;20496;-68
2022/05/03 05:59:35;;;;;;;6.47;4.20;;;14.80;94.80;;;;;;5133788;27;20015;-68
2022/05/03 06:02:01;;;;;;;5.53;3.70;;;14.20;94.60;;;;;;5132576;28;20366;-68
2022/05/03 06:04:28;;;;;;;5.07;3.65;;;14.60;94.30;;;;;;5133703;28;20419;-68
2022/05/03 06:06:55;;;;;;;5.80;3.92;;;14.50;93.20;;;;;;5132635;28;20022;-68
2022/05/03 06:09:21;;;;;;;5.45;3.97;;;14.70;93.90;;;;;;5133663;27;20019;-68
2022/05/03 06:11:46;;;;;;;4.95;3.72;;;15.10;92.40;;;;;;5136952;27;20034;-68
2022/05/03 06:14:12;;;;;;;5.45;3.58;;;14.30;92.00;;;;;;5137565;27;20054;-68
2022/05/03 06:16:55;;;;;;;4.07;3.65;;;15.40;92.10;;;;;;5137497;27;20106;-68
2022/05/03 06:19:21;;;;;;;5.40;3.10;;;16.20;90.40;;;;;;5137629;27;20027;-68
2022/05/03 06:21:47;;;;;;;4.35;3.15;;;15.70;85.50;;;;;;5137514;27;20437;-68
2022/05/03 06:24:13;;;;;;;4.38;2.83;;;16.90;81.10;;;;;;5137230;27;20076;-68
2022/05/03 06:26:39;;;;;;;4.93;2.70;;;17.30;76.80;;;;;;5137406;27;20019;-68
2022/05/03 06:29:06;;;;;;;3.28;2.67;;;17.30;74.10;;;;;;5137392;27;20036;-68
2022/05/03 06:31:33;;;;;;;2.80;2.30;;;15.90;74.40;;;;;;5137485;27;20068;-68
2022/05/03 06:33:59;;;;;;;3.67;2.63;;;16.20;74.10;;;;;;5137219;27;20023;-68
2022/05/03 06:36:25;;;;;;;2.85;2.60;;;16.60;74.90;;;;;;5137380;27;20124;-68
2022/05/03 06:38:51;;;;;;;4.35;2.65;;;16.30;73.30;;;;;;5137073;27;20027;-68
2022/05/03 06:41:16;;;;;;;5.45;2.22;;;17.20;71.70;;;;;;5137265;27;20030;-69
2022/05/03 06:43:42;;;;;;;4.05;2.58;;;17.30;67.40;;;;;;5136954;27;20027;-69
2022/05/03 06:46:08;;;;;;;2.67;2.40;;;17.20;68.60;;;;;;5136950;27;20095;-68
2022/05/03 06:48:33;;;;;;;4.07;2.40;;;17.30;66.50;;;;;;5135746;27;20425;-68
2022/05/03 06:50:59;;;;;;;3.22;2.67;;;18.10;66.30;;;;;;5136851;27;20027;-68
2022/05/03 06:53:24;;;;;;;4.07;2.35;;;18.00;62.70;;;;;;5136748;27;20098;-69
2022/05/03 06:55:50;;;;;;;3.80;2.25;;;17.10;64.60;;;;;;5139926;27;20102;-69
2022/05/03 06:58:16;;;;;;;3.33;2.13;;;17.40;66.40;;;;;;5139017;27;20023;-68
2022/05/03 07:00:41;;;;;;;3.28;2.20;;;17.90;64.20;;;;;;5135080;27;20024;-69
2022/05/03 07:03:07;;;;;;;4.03;2.20;;;18.20;64.60;;;;;;5130665;27;20031;-69
2022/05/03 07:05:32;;;;;;;2.92;2.33;;;18.90;63.80;;;;;;5137758;27;20037;-69
2022/05/03 07:07:59;;;;;;;3.58;1.60;;;19.00;59.00;;;;;;5136467;27;20376;-69
2022/05/03 07:10:25;;;;;;;1.30;1.20;;;19.70;55.40;;;;;;5137054;27;20035;-68
2022/05/03 07:12:51;;;;;;;1.20;1.10;;;20.20;54.00;;;;;;5137615;27;20051;-68
2022/05/03 07:15:18;;;;;;;1.30;1.10;;;19.40;51.60;;;;;;5136350;27;20058;-69
2022/05/03 07:23:16;;;;;;;2.42;1.50;;;18.90;55.10;;;;;;5115229;28;20024;-68
2022/05/03 07:25:44;;;;;;;2.22;1.70;;;18.00;54.40;;;;;;5133647;27;20026;-68
2022/05/03 07:28:10;;;;;;;4.57;1.75;;;18.20;55.40;;;;;;5145295;27;20019;-69
2022/05/03 07:30:36;;;;;;;5.13;1.55;;;19.60;53.20;;;;;;5136014;27;20083;-68
2022/05/03 07:33:02;;;;;;;2.15;1.40;;;20.00;54.20;;;;;;5136250;27;20023;-68
2022/05/03 07:35:27;;;;;;;4.05;1.33;;;19.90;51.00;;;;;;5136213;27;20027;-68
2022/05/03 07:37:52;;;;;;;1.52;1.30;;;19.40;51.50;;;;;;5144887;27;20042;-69
2022/05/03 07:40:18;;;;;;;2.17;1.30;;;19.50;53.40;;;;;;5156601;27;20399;-68
2022/05/03 07:42:44;;;;;;;2.10;1.30;;;20.60;50.10;;;;;;5156758;27;20026;-68
2022/05/03 07:45:10;;;;;;;2.83;1.20;;;21.50;48.00;;;;;;5144809;27;20033;-69
2022/05/03 07:47:36;;;;;;;2.53;1.13;;;21.30;47.70;;;;;;5135662;27;20047;-69
2022/05/03 07:50:03;;;;;;;2.95;1.25;;;20.40;48.40;;;;;;5134627;27;20373;-69
2022/05/03 07:52:29;;;;;;;7.80;1.10;;;20.80;48.70;;;;;;5135582;27;20019;-68
2022/05/03 07:54:55;;;;;;;1.30;1.20;;;19.50;48.70;;;;;;5134939;27;20042;-69
2022/05/03 07:57:21;;;;;;;2.47;1.30;;;19.20;49.10;;;;;;5135767;27;20035;-69
2022/05/03 07:59:46;;;;;;;1.42;1.20;;;20.10;48.70;;;;;;5134364;27;20022;-69
2022/05/03 08:02:12;;;;;;;1.45;1.35;;;19.60;48.70;;;;;;5135383;27;20035;-69
2022/05/03 08:04:39;;;;;;;2.05;1.73;;;19.40;48.80;;;;;;5133953;27;20531;-68
2022/05/03 08:07:05;;;;;;;2.42;1.80;;;20.20;49.80;;;;;;5131642;27;20019;-69
2022/05/03 08:09:31;;;;;;;3.47;1.73;;;19.80;50.60;;;;;;5134205;27;20353;-68
2022/05/03 08:11:57;;;;;;;2.42;1.90;;;20.60;51.50;;;;;;5135188;27;20023;-69
2022/05/03 08:14:22;;;;;;;2.55;1.60;;;21.70;49.20;;;;;;5135255;27;20400;-69
2022/05/03 08:16:48;;;;;;;2.20;2.00;;;21.60;46.70;;;;;;5132702;27;20027;-69
2022/05/03 08:19:13;;;;;;;2.28;2.00;;;21.70;48.20;;;;;;5133733;27;20034;-69
2022/05/03 08:21:39;;;;;;;6.03;2.03;;;21.90;48.50;;;;;;5132509;27;20033;-69
2022/05/03 08:24:05;;;;;;;2.92;1.83;;;20.10;48.50;;;;;;5133479;27;20074;-69
2022/05/03 08:26:33;;;;;;;1.83;1.70;;;18.80;51.40;;;;;;5134424;27;20099;-69
2022/05/03 08:28:58;;;;;;;4.72;2.15;;;20.30;50.90;;;;;;5134126;27;20469;-69
2022/05/03 08:31:24;;;;;;;2.50;2.10;;;21.40;48.20;;;;;;5133725;27;20083;-69
2022/05/03 08:33:49;;;;;;;1.77;1.67;;;20.40;48.50;;;;;;5132888;27;20483;-68
2022/05/03 08:36:15;;;;;;;2.40;2.10;;;20.90;48.30;;;;;;5133414;27;20027;-68
2022/05/03 08:44:13;;;;;;;3.40;1.80;;;20.80;49.00;;;;;;5131284;27;20027;-69
2022/05/03 08:46:42;;;;;;;1.67;1.55;;;20.50;49.20;;;;;;5134572;27;20114;-69
2022/05/03 08:49:13;;;;;;;1.77;1.67;;;21.30;48.00;;;;;;5132476;27;20465;-69
2022/05/03 08:51:42;;;;;;;2.05;1.70;;;20.70;48.00;;;;;;5129229;27;20068;-69
2022/05/03 08:54:08;;;;;;;5.32;1.70;;;20.10;48.70;;;;;;5133093;27;20034;-68
2022/05/03 08:56:34;;;;;;;3.28;1.50;;;19.40;49.50;;;;;;5134292;27;20019;-69
2022/05/03 08:59:00;;;;;;;2.25;2.05;;;21.30;49.90;;;;;;5133168;27;20024;-68
2022/05/03 09:01:26;;;;;;;2.75;1.70;;;21.60;48.30;;;;;;5134312;27;20167;-69
2022/05/03 09:03:52;;;;;;;2.78;1.90;;;21.10;46.90;;;;;;5134248;27;20461;-68
2022/05/03 09:06:18;;;;;;;2.20;2.00;;;21.00;49.90;;;;;;5134463;27;20047;-69
2022/05/03 09:08:51;;;;;;;2.70;1.90;;;21.00;48.80;;;;;;5133127;27;20024;-69
2022/05/03 09:11:18;;;;;;;2.35;1.58;;;20.50;49.70;;;;;;5133811;27;20023;-69
2022/05/03 09:13:46;;;;;;;1.98;1.40;;;22.60;49.20;;;;;;5134227;27;20366;-69
2022/05/03 09:16:15;;;;;;;2.08;1.45;;;22.10;46.40;;;;;;5134398;27;20027;-69
2022/05/03 09:18:42;;;;;;;2.28;1.70;;;22.10;46.30;;;;;;5132822;27;20047;-69
2022/05/03 09:24:07;;;;;;;2.65;1.45;;;22.20;46.50;;;;;;5133719;28;20131;-69
2022/05/03 09:26:33;;;;;;;1.67;1.58;;;22.50;47.30;;;;;;5134114;27;20433;-69
2022/05/03 09:31:41;;;;;;;2.88;1.77;;;22.20;45.90;;;;;;5110937;27;20295;-69
2022/05/03 09:34:27;;;;;;;3.03;1.40;;;21.30;46.10;;;;;;5114566;28;20505;-69
2022/05/03 09:37:05;;;;;;;2.53;1.65;;;21.10;46.50;;;;;;5110768;28;20027;-68
2022/05/03 09:39:34;;;;;;;2.65;1.70;;;20.80;46.90;;;;;;5107932;28;20028;-69
2022/05/03 09:42:09;;;;;;;2.35;1.55;;;21.30;46.60;;;;;;5106977;28;20081;-69
2022/05/03 09:44:36;;;;;;;2.72;1.90;;;21.50;48.10;;;;;;5090324;28;20028;-69
2022/05/03 09:47:10;;;;;;;3.05;1.85;;;22.30;47.30;;;;;;5090492;28;20040;-69
2022/05/03 09:49:37;;;;;;;;;;;22.90;44.80;;;;;;5112899;28;20027;-68
2022/05/03 09:52:04;;;;;;;2.75;1.90;;;22.30;46.00;;;;;;5110515;28;19916;-69
2022/05/03 09:54:46;;;;;;;5.45;1.90;;;23.10;46.30;;;;;;5110667;28;20103;-69
2022/05/03 09:57:22;;;;;;;3.30;1.70;;;23.20;44.50;;;;;;5110697;28;20069;-69
2022/05/03 09:59:49;;;;;;;2.60;1.80;;;23.40;44.20;;;;;;5110481;28;20121;-69
2022/05/03 10:02:21;;;;;;;2.35;2.15;;;22.80;43.40;;;;;;5112696;28;20481;-69
2022/05/03 10:04:48;;;;;;;3.55;2.00;;;22.50;45.30;;;;;;5110493;28;20040;-69
2022/05/03 10:07:14;;;;;;;5.40;2.00;;;22.80;44.70;;;;;;5109447;28;20035;-69
2022/05/03 10:09:41;;;;;;;3.45;1.70;;;22.80;44.10;;;;;;5097180;28;20398;-68
2022/05/03 10:12:09;;;;;;;2.25;2.05;;;22.90;44.30;;;;;;5101566;28;20024;-69
2022/05/03 10:14:35;;;;;;;2.70;1.70;;;22.60;43.70;;;;;;5108026;28;20035;-68
2022/05/03 10:22:39;;;;;;;3.15;2.00;;;23.10;44.50;;;;;;5101855;28;20096;-68
2022/05/03 10:25:08;;;;;;;3.70;1.60;;;22.40;43.00;;;;;;5109908;28;20016;-68
2022/05/03 10:27:54;;;;;;;2.15;1.70;;;22.40;44.40;;;;;;5097618;28;20028;-68
2022/05/03 10:30:22;;;;;;;2.25;1.73;;;22.70;44.00;;;;;;5092667;28;20180;-68
2022/05/03 10:33:28;;;;;;;2.95;2.08;;;23.70;44.90;;;;;;5105170;28;20069;-68
2022/05/03 10:35:53;;;;;;;3.00;2.00;;;22.40;43.20;;;;;;5093278;28;20016;-68
2022/05/03 10:38:40;;;;;;;2.92;2.25;;;22.90;44.60;;;;;;5113403;28;20026;-69
2022/05/03 10:41:08;;;;;;;2.92;2.20;;;23.40;45.30;;;;;;5106449;28;20490;-69
2022/05/03 10:43:35;;;;;;;2.40;2.20;;;23.30;45.40;;;;;;5096209;28;20471;-67
2022/05/03 10:46:22;;;;;;;2.72;2.05;;;22.50;44.30;;;;;;5096238;28;20482;-67
2022/05/03 10:49:12;;;;;;;2.58;2.00;;;22.60;44.30;;;;;;5095815;28;20447;-67
2022/05/03 10:51:38;;;;;;;2.55;1.90;;;22.30;45.70;;;;;;5096039;28;20477;-69
2022/05/03 10:54:06;;;;;;;4.03;2.35;;;21.90;45.40;;;;;;5095556;28;20073;-68
2022/05/03 10:56:31;;;;;;;3.53;2.42;;;21.40;46.50;;;;;;5082514;28;20033;-69
2022/05/03 10:59:12;;;;;;;2.50;2.30;;;20.80;47.60;;;;;;5116030;28;20027;-67
2022/05/03 11:05:14;;;;;;;5.15;3.03;;;20.50;48.40;;;;;;5071887;28;20434;-69
2022/05/03 11:07:41;;;;;;;5.53;3.00;;;20.30;48.60;;;;;;5067705;28;20028;-68
2022/05/03 11:10:42;;;;;;;4.95;3.53;;;20.10;52.50;;;;;;5070350;28;20537;-69
2022/05/03 11:13:42;;;;;;;4.00;3.35;;;20.30;50.60;;;;;;5068467;28;20475;-69
2022/05/03 11:16:25;;;;;;;5.60;4.13;;;20.70;51.40;;;;;;5067426;28;20105;-69
2022/05/03 11:18:51;;;;;;;4.95;3.70;;;20.70;51.30;;;;;;5068589;28;20103;-69
2022/05/03 11:21:17;;;;;;;3.80;3.47;;;20.80;50.60;;;;;;5067667;28;20029;-69
2022/05/03 11:23:53;;;;;;;6.90;3.85;;;20.60;52.10;;;;;;5070279;28;20490;-69
2022/05/03 11:26:20;;;;;;;5.70;3.78;;;20.00;52.00;;;;;;5067664;28;20027;-68
2022/05/03 11:28:49;;;;;;;4.95;4.30;;;20.30;53.50;;;;;;5064656;28;20025;-68
2022/05/03 11:31:18;;;;;;;6.63;4.68;;;20.40;52.80;;;;;;5070044;28;20360;-69
2022/05/03 11:33:49;;;;;;;5.72;4.28;;;20.60;53.00;;;;;;5064921;28;20032;-68
2022/05/03 11:36:15;;;;;;;9.75;5.30;;;20.70;51.50;;;;;;5069031;28;20503;-69
2022/05/03 11:38:40;;;;;;;6.57;4.65;;;20.50;52.60;;;;;;5066851;28;20044;-69
2022/05/03 11:41:07;;;;;;;7.03;4.70;;;19.90;53.10;;;;;;5069379;28;20025;-69
2022/05/03 11:43:33;;;;;;;5.55;4.57;;;19.80;54.60;;;;;;5052564;28;20034;-69
2022/05/03 11:45:59;;;;;;;6.70;5.03;;;20.10;54.10;;;;;;5049335;28;20024;-69
2022/05/03 11:48:25;;;;;;;6.65;5.13;;;19.70;54.90;;;;;;5049182;28;20025;-68
2022/05/03 11:56:27;;;;;;;7.32;4.80;;;19.40;55.20;;;;;;5049441;28;20051;-68
2022/05/03 11:58:54;;;;;;;7.47;5.18;;;19.80;56.50;;;;;;5049676;28;20025;-69
2022/05/03 12:01:21;;;;;;;6.18;5.57;;;20.10;55.80;;;;;;5049188;28;20029;-69
2022/05/03 12:03:49;;;;;;;7.72;5.20;;;20.70;54.50;;;;;;5048935;28;20048;-69
2022/05/03 12:06:16;;;;;;;6.85;5.38;;;21.20;54.80;;;;;;5049378;28;20471;-69
2022/05/03 12:08:43;;;;;;;7.03;5.22;;;21.20;53.30;;;;;;5049203;28;20025;-69
2022/05/03 12:11:19;;;;;;;11.50;6.25;;;21.10;53.80;;;;;;5049247;28;20044;-69
2022/05/03 12:13:44;;;;;;;6.97;4.88;;;21.00;53.80;;;;;;5049049;28;20025;-69
2022/05/03 12:16:11;;;;;;;7.70;6.05;;;20.80;54.30;;;;;;5035161;28;20488;-69
2022/05/03 12:18:40;;;;;;;8.70;6.85;;;21.00;53.40;;;;;;5036087;28;20033;-69
2022/05/03 12:21:12;;;;;;;7.65;6.25;;;20.80;53.60;;;;;;5036086;28;20514;-69
2022/05/03 12:23:41;;;;;;;6.78;5.97;;;20.70;53.90;;;;;;5035941;28;20083;-69
2022/05/03 12:26:35;;;;;;;9.05;6.18;;;21.00;53.80;;;;;;5034459;28;20078;-69
2022/05/03 12:29:01;;;;;;;8.60;6.70;;;20.80;54.40;;;;;;5035310;28;20033;-69
2022/05/03 12:31:34;;;;;;;7.75;5.85;;;20.60;54.60;;;;;;5038742;28;20391;-69
2022/05/03 12:33:59;;;;;;;7.47;5.68;;;20.40;55.00;;;;;;5034252;28;20553;-69
2022/05/03 12:36:45;;;;;;;7.03;6.32;;;20.20;56.20;;;;;;5033991;28;20117;-67
2022/05/03 12:39:16;;;;;;;7.95;6.55;;;19.40;56.40;;;;;;5035226;28;20029;-67
2022/05/03 12:41:43;;;;;;;11.35;6.57;;;19.40;56.80;;;;;;5035588;28;20132;-68
2022/05/03 12:44:12;;;;;;;7.60;6.32;;;19.80;56.30;;;;;;5035367;28;20491;-67
2022/05/03 12:46:39;;;;;;;11.30;6.10;;;20.10;56.10;;;;;;5035315;28;20037;-68
2022/05/03 12:49:09;;;;;;;10.63;6.18;;;20.00;55.60;;;;;;5038844;28;20027;-68
2022/05/03 12:51:35;;;;;;;9.10;5.78;;;20.30;56.20;;;;;;5040812;28;20026;-68
2022/05/03 12:54:03;;;;;;;11.43;6.40;;;20.60;56.50;;;;;;5035313;28;20028;-68
2022/05/03 12:59:16;;;;;;;7.30;6.22;;;20.60;56.20;;;;;;5034914;28;20052;-68
2022/05/03 13:01:42;;;;;;;9.27;6.40;;;20.80;55.60;;;;;;5035259;28;20053;-68
2022/05/03 13:04:09;;;;;;;9.63;6.95;;;20.60;54.90;;;;;;5034758;28;20517;-68
2022/05/03 13:06:35;;;;;;;8.05;6.38;;;19.70;55.40;;;;;;5035187;28;20026;-68
2022/05/03 13:09:00;;;;;;;7.90;6.15;;;20.50;57.40;;;;;;5035034;28;20026;-68
2022/05/03 13:11:26;;;;;;;9.15;6.63;;;20.60;54.70;;;;;;5034712;28;20026;-68
2022/05/03 13:13:52;;;;;;;8.30;6.20;;;20.60;55.60;;;;;;5034836;28;20472;-68
2022/05/03 13:16:20;;;;;;;9.43;6.43;;;20.50;55.70;;;;;;5034736;28;20075;-70
2022/05/03 13:18:46;;;;;;;8.80;6.57;;;20.40;55.20;;;;;;5034642;28;20444;-68
2022/05/03 13:21:11;;;;;;;8.07;6.40;;;20.10;55.90;;;;;;5033668;28;20108;-68
2022/05/03 13:23:37;;;;;;;9.43;6.50;;;19.90;56.70;;;;;;5034551;28;20362;-69
2022/05/03 13:26:02;;;;;;;8.98;7.07;;;20.40;57.90;;;;;;5033700;28;20101;-68
2022/05/03 13:28:28;;;;;;;11.35;7.32;;;20.40;56.10;;;;;;5034641;28;20025;-68
2022/05/03 13:30:55;;;;;;;8.45;6.57;;;19.80;55.80;;;;;;5034769;28;20026;-68
2022/05/03 13:33:21;;;;;;;7.72;6.38;;;19.50;56.40;;;;;;5034494;28;20033;-68
2022/05/03 13:41:19;;;;;;;8.18;6.65;;;20.00;57.80;;;;;;5034042;28;20029;-68
2022/05/03 13:43:46;;;;;;;12.20;7.82;;;20.30;55.20;;;;;;5034203;28;20028;-68
2022/05/03 13:46:12;;;;;;;12.65;6.85;;;20.30;55.10;;;;;;5034487;28;20029;-68
2022/05/03 13:48:38;;;;;;;8.27;6.45;;;20.10;54.60;;;;;;5034193;28;20021;-68
2022/05/03 13:51:04;;;;;;;10.27;6.63;;;20.50;56.00;;;;;;5034337;28;20021;-68
2022/05/03 13:53:30;;;;;;;8.57;6.68;;;20.80;55.90;;;;;;5032856;28;20064;-68
2022/05/03 13:55:56;;;;;;;9.60;7.75;;;20.90;53.60;;;;;;5032857;28;20029;-68
2022/05/03 13:58:23;;;;;;;7.78;6.57;;;20.10;54.50;;;;;;5034148;28;20021;-68
2022/05/03 14:00:49;;;;;;;6.97;6.18;;;19.70;56.80;;;;;;5033859;28;20029;-68
2022/05/03 14:03:16;;;;;;;9.00;6.28;;;20.10;57.50;;;;;;5033432;28;20102;-68
2022/05/03 14:05:43;;;;;;;9.52;6.57;;;20.30;57.10;;;;;;5034080;28;20026;-69
2022/05/03 14:08:10;;;;;;;10.98;6.72;;;19.80;58.10;;;;;;5037274;28;20056;-68
2022/05/03 14:10:36;;;;;;;8.82;6.50;;;20.10;57.70;;;;;;5064746;28;20534;-68
2022/05/03 14:13:02;;;;;;;7.07;6.25;;;20.10;56.80;;;;;;5050066;28;20021;-68
2022/05/03 14:15:27;;;;;;;9.70;6.65;;;20.30;58.30;;;;;;5051454;28;20115;-68
2022/05/03 14:17:53;;;;;;;9.27;6.80;;;20.00;57.60;;;;;;5051002;28;20036;-68
2022/05/03 14:20:19;;;;;;;8.23;6.80;;;19.40;57.60;;;;;;5053690;28;20029;-68